sensor_id;sensor_type;location;lat;lon;timestamp;temperature;humidity
16867;DHT22;8550;52.596;13.320;2023-07-20T00:00:41;16.10;99.90
16867;DHT22;8550;52.596;13.320;2023-07-20T00:05:43;16.10;99.90
16867;DHT22;8550;52.596;13.320;2023-07-20T00:10:46;15.90;99.90
16867;DHT22;8550;52.596;13.320;2023-07-20T00:15:48;15.80;99.90
16867;DHT22;8550;52.596;13.320;2023-07-20T00:20:50;15.70;99.90
16867;DHT22;8550;52.596;13.320;2023-07-20T00:25:53;15.70;99.90
16867;DHT22;8550;52.596;13.320;2023-07-20T00:30:55;15.70;99.90
16867;DHT22;8550;52.596;13.320;2023-07-20T00:35:57;15.70;99.90
16867;DHT22;8550;52.596;13.320;2023-07-20T00:41:01;15.60;99.90
16867;DHT22;8550;52.596;13.320;2023-07-20T00:46:03;15.60;99.90
16867;DHT22;8550;52.596;13.320;2023-07-20T00:51:05;15.50;99.90
16867;DHT22;8550;52.596;13.320;2023-07-20T00:56:09;15.50;99.90
16867;DHT22;8550;52.596;13.320;2023-07-20T01:01:12;15.40;99.90
16867;DHT22;8550;52.596;13.320;2023-07-20T01:06:22;15.50;99.90
16867;DHT22;8550;52.596;13.320;2023-07-20T01:11:34;15.50;99.90
16867;DHT22;8550;52.596;13.320;2023-07-20T01:16:38;15.50;99.90
16867;DHT22;8550;52.596;13.320;2023-07-20T01:21:45;15.60;99.90
16867;DHT22;8550;52.596;13.320;2023-07-20T01:32:41;15.60;99.90
16867;DHT22;8550;52.596;13.320;2023-07-20T01:37:46;15.60;99.90
16867;DHT22;8550;52.596;13.320;2023-07-20T01:42:49;15.70;99.90
16867;DHT22;8550;52.596;13.320;2023-07-20T01:47:52;15.70;99.90
16867;DHT22;8550;52.596;13.320;2023-07-20T01:52:54;15.80;99.90
16867;DHT22;8550;52.596;13.320;2023-07-20T01:57:57;15.80;99.90
16867;DHT22;8550;52.596;13.320;2023-07-20T02:03:02;15.70;99.90
16867;DHT22;8550;52.596;13.320;2023-07-20T02:08:04;15.70;99.90
16867;DHT22;8550;52.596;13.320;2023-07-20T02:13:06;15.70;99.90
16867;DHT22;8550;52.596;13.320;2023-07-20T02:18:09;15.70;99.90
16867;DHT22;8550;52.596;13.320;2023-07-20T02:23:11;15.80;99.90
16867;DHT22;8550;52.596;13.320;2023-07-20T02:28:13;15.80;99.90
16867;DHT22;8550;52.596;13.320;2023-07-20T02:33:17;15.80;99.90
16867;DHT22;8550;52.596;13.320;2023-07-20T02:38:20;15.70;99.90
16867;DHT22;8550;52.596;13.320;2023-07-20T02:43:22;15.70;99.90
16867;DHT22;8550;52.596;13.320;2023-07-20T02:48:26;15.70;99.90
16867;DHT22;8550;52.596;13.320;2023-07-20T02:53:28;15.70;99.90
16867;DHT22;8550;52.596;13.320;2023-07-20T02:58:30;15.70;99.90
16867;DHT22;8550;52.596;13.320;2023-07-20T03:03:33;15.60;99.90
16867;DHT22;8550;52.596;13.320;2023-07-20T03:08:39;15.60;99.90
16867;DHT22;8550;52.596;13.320;2023-07-20T03:13:41;15.50;99.90
16867;DHT22;8550;52.596;13.320;2023-07-20T03:18:45;15.50;99.90
16867;DHT22;8550;52.596;13.320;2023-07-20T03:23:47;15.60;99.90
16867;DHT22;8550;52.596;13.320;2023-07-20T03:28:49;15.50;99.90
16867;DHT22;8550;52.596;13.320;2023-07-20T03:33:52;15.50;99.90
16867;DHT22;8550;52.596;13.320;2023-07-20T03:38:54;15.50;99.90
16867;DHT22;8550;52.596;13.320;2023-07-20T03:43:56;15.60;99.90
16867;DHT22;8550;52.596;13.320;2023-07-20T03:48:59;15.70;99.90
16867;DHT22;8550;52.596;13.320;2023-07-20T03:54:02;15.80;99.90
16867;DHT22;8550;52.596;13.320;2023-07-20T03:59:04;15.80;99.90
16867;DHT22;8550;52.596;13.320;2023-07-20T04:04:08;15.70;99.90
16867;DHT22;8550;52.596;13.320;2023-07-20T04:09:10;15.80;99.90
16867;DHT22;8550;52.596;13.320;2023-07-20T04:14:13;15.80;99.90
16867;DHT22;8550;52.596;13.320;2023-07-20T04:19:16;15.90;99.90
16867;DHT22;8550;52.596;13.320;2023-07-20T04:24:18;15.90;99.90
16867;DHT22;8550;52.596;13.320;2023-07-20T04:29:20;16.00;99.90
16867;DHT22;8550;52.596;13.320;2023-07-20T04:34:23;16.00;99.90
16867;DHT22;8550;52.596;13.320;2023-07-20T04:39:25;15.90;99.90
16867;DHT22;8550;52.596;13.320;2023-07-20T04:44:27;16.00;99.90
16867;DHT22;8550;52.596;13.320;2023-07-20T04:49:30;16.10;99.90
16867;DHT22;8550;52.596;13.320;2023-07-20T04:54:32;16.20;99.90
16867;DHT22;8550;52.596;13.320;2023-07-20T04:59:34;16.10;99.90
16867;DHT22;8550;52.596;13.320;2023-07-20T05:04:37;16.30;99.90
16867;DHT22;8550;52.596;13.320;2023-07-20T05:09:39;16.30;99.90
16867;DHT22;8550;52.596;13.320;2023-07-20T05:14:42;16.40;99.90
16867;DHT22;8550;52.596;13.320;2023-07-20T05:19:45;16.50;99.90
16867;DHT22;8550;52.596;13.320;2023-07-20T05:24:47;16.50;99.90
16867;DHT22;8550;52.596;13.320;2023-07-20T05:29:49;16.50;99.90
16867;DHT22;8550;52.596;13.320;2023-07-20T05:34:53;16.50;99.90
16867;DHT22;8550;52.596;13.320;2023-07-20T05:39:55;16.50;99.90
16867;DHT22;8550;52.596;13.320;2023-07-20T05:44:57;16.50;99.90
16867;DHT22;8550;52.596;13.320;2023-07-20T05:50:01;16.80;99.90
16867;DHT22;8550;52.596;13.320;2023-07-20T05:55:04;17.00;99.90
16867;DHT22;8550;52.596;13.320;2023-07-20T06:00:07;17.20;99.90
16867;DHT22;8550;52.596;13.320;2023-07-20T06:05:11;17.60;99.90
16867;DHT22;8550;52.596;13.320;2023-07-20T06:10:13;18.10;99.90
16867;DHT22;8550;52.596;13.320;2023-07-20T06:15:25;17.80;99.90
16867;DHT22;8550;52.596;13.320;2023-07-20T06:20:29;17.60;99.90
16867;DHT22;8550;52.596;13.320;2023-07-20T06:25:31;17.40;99.90
16867;DHT22;8550;52.596;13.320;2023-07-20T06:30:34;17.40;99.90
16867;DHT22;8550;52.596;13.320;2023-07-20T06:35:37;17.60;99.90
16867;DHT22;8550;52.596;13.320;2023-07-20T06:40:39;17.40;99.90
16867;DHT22;8550;52.596;13.320;2023-07-20T06:45:42;17.30;99.90
16867;DHT22;8550;52.596;13.320;2023-07-20T06:50:45;17.40;99.90
16867;DHT22;8550;52.596;13.320;2023-07-20T06:55:47;17.60;99.90
16867;DHT22;8550;52.596;13.320;2023-07-20T07:00:49;17.90;99.90
16867;DHT22;8550;52.596;13.320;2023-07-20T07:05:55;18.00;99.90
16867;DHT22;8550;52.596;13.320;2023-07-20T07:10:57;17.80;99.90
16867;DHT22;8550;52.596;13.320;2023-07-20T07:15:59;17.70;99.90
16867;DHT22;8550;52.596;13.320;2023-07-20T07:21:02;18.10;99.90
16867;DHT22;8550;52.596;13.320;2023-07-20T07:26:04;18.60;99.90
16867;DHT22;8550;52.596;13.320;2023-07-20T07:31:07;19.00;99.90
16867;DHT22;8550;52.596;13.320;2023-07-20T07:36:10;18.60;99.90
16867;DHT22;8550;52.596;13.320;2023-07-20T07:41:13;18.60;99.90
16867;DHT22;8550;52.596;13.320;2023-07-20T07:46:15;18.90;99.90
16867;DHT22;8550;52.596;13.320;2023-07-20T07:51:19;19.40;99.90
16867;DHT22;8550;52.596;13.320;2023-07-20T07:56:20;19.50;99.90
16867;DHT22;8550;52.596;13.320;2023-07-20T08:01:23;19.50;99.90
16867;DHT22;8550;52.596;13.320;2023-07-20T08:06:26;19.80;99.90
16867;DHT22;8550;52.596;13.320;2023-07-20T08:11:28;19.80;99.90
16867;DHT22;8550;52.596;13.320;2023-07-20T08:16:31;19.50;99.90
16867;DHT22;8550;52.596;13.320;2023-07-20T08:21:34;19.80;99.90
16867;DHT22;8550;52.596;13.320;2023-07-20T08:26:36;20.20;99.90
16867;DHT22;8550;52.596;13.320;2023-07-20T08:31:38;20.20;99.90
16867;DHT22;8550;52.596;13.320;2023-07-20T08:36:42;20.30;99.90
16867;DHT22;8550;52.596;13.320;2023-07-20T08:41:44;20.10;99.90
16867;DHT22;8550;52.596;13.320;2023-07-20T08:46:48;20.20;99.90
16867;DHT22;8550;52.596;13.320;2023-07-20T08:51:52;20.50;99.90
16867;DHT22;8550;52.596;13.320;2023-07-20T08:56:55;20.80;99.90
16867;DHT22;8550;52.596;13.320;2023-07-20T09:01:58;20.30;99.90
16867;DHT22;8550;52.596;13.320;2023-07-20T09:07:02;20.70;99.90
16867;DHT22;8550;52.596;13.320;2023-07-20T09:12:05;20.70;99.90
16867;DHT22;8550;52.596;13.320;2023-07-20T09:17:13;21.40;99.90
16867;DHT22;8550;52.596;13.320;2023-07-20T09:22:16;21.20;99.90
16867;DHT22;8550;52.596;13.320;2023-07-20T09:27:18;21.00;99.90
16867;DHT22;8550;52.596;13.320;2023-07-20T09:32:21;20.10;99.90
16867;DHT22;8550;52.596;13.320;2023-07-20T09:37:24;19.30;99.90
16867;DHT22;8550;52.596;13.320;2023-07-20T09:42:27;19.20;99.90
16867;DHT22;8550;52.596;13.320;2023-07-20T09:47:29;19.10;99.90
16867;DHT22;8550;52.596;13.320;2023-07-20T09:52:33;19.30;99.90
16867;DHT22;8550;52.596;13.320;2023-07-20T09:57:35;20.00;99.90
16867;DHT22;8550;52.596;13.320;2023-07-20T10:02:42;20.10;99.90
16867;DHT22;8550;52.596;13.320;2023-07-20T10:07:48;20.30;99.90
16867;DHT22;8550;52.596;13.320;2023-07-20T10:12:50;19.60;99.90
16867;DHT22;8550;52.596;13.320;2023-07-20T10:18:03;19.20;99.90
16867;DHT22;8550;52.596;13.320;2023-07-20T10:23:10;19.30;99.90
16867;DHT22;8550;52.596;13.320;2023-07-20T10:28:14;19.50;99.90
16867;DHT22;8550;52.596;13.320;2023-07-20T10:33:16;20.20;99.90
16867;DHT22;8550;52.596;13.320;2023-07-20T10:38:38;20.40;99.90
16867;DHT22;8550;52.596;13.320;2023-07-20T10:43:42;20.80;99.90
16867;DHT22;8550;52.596;13.320;2023-07-20T10:49:00;21.00;99.90
16867;DHT22;8550;52.596;13.320;2023-07-20T10:54:07;21.30;99.90
16867;DHT22;8550;52.596;13.320;2023-07-20T10:59:18;21.50;99.90
16867;DHT22;8550;52.596;13.320;2023-07-20T11:04:37;21.70;99.90
16867;DHT22;8550;52.596;13.320;2023-07-20T11:09:41;21.30;99.90
16867;DHT22;8550;52.596;13.320;2023-07-20T11:14:52;21.60;99.90
16867;DHT22;8550;52.596;13.320;2023-07-20T11:19:56;21.70;99.30
16867;DHT22;8550;52.596;13.320;2023-07-20T11:24:59;21.70;99.30
16867;DHT22;8550;52.596;13.320;2023-07-20T11:30:01;24.50;94.10
16867;DHT22;8550;52.596;13.320;2023-07-20T11:35:04;24.70;90.90
16867;DHT22;8550;52.596;13.320;2023-07-20T11:40:09;23.00;93.40
16867;DHT22;8550;52.596;13.320;2023-07-20T11:45:11;20.60;99.90
16867;DHT22;8550;52.596;13.320;2023-07-20T11:50:13;19.30;99.90
16867;DHT22;8550;52.596;13.320;2023-07-20T11:55:18;18.50;99.90
16867;DHT22;8550;52.596;13.320;2023-07-20T12:00:20;18.40;99.90
16867;DHT22;8550;52.596;13.320;2023-07-20T12:05:26;18.20;99.90
16867;DHT22;8550;52.596;13.320;2023-07-20T12:10:29;18.30;99.90
16867;DHT22;8550;52.596;13.320;2023-07-20T12:15:31;18.20;99.90
16867;DHT22;8550;52.596;13.320;2023-07-20T12:20:34;18.80;99.90
16867;DHT22;8550;52.596;13.320;2023-07-20T12:25:39;19.90;99.90
16867;DHT22;8550;52.596;13.320;2023-07-20T12:30:43;21.00;99.90
16867;DHT22;8550;52.596;13.320;2023-07-20T12:35:45;22.70;99.90
16867;DHT22;8550;52.596;13.320;2023-07-20T12:40:49;26.30;91.80
16867;DHT22;8550;52.596;13.320;2023-07-20T12:45:51;26.10;82.80
16867;DHT22;8550;52.596;13.320;2023-07-20T12:50:53;28.70;67.60
16867;DHT22;8550;52.596;13.320;2023-07-20T12:55:57;27.60;65.50
16867;DHT22;8550;52.596;13.320;2023-07-20T13:00:58;28.80;64.60
16867;DHT22;8550;52.596;13.320;2023-07-20T13:06:00;29.00;59.00
16867;DHT22;8550;52.596;13.320;2023-07-20T13:11:04;29.90;56.90
16867;DHT22;8550;52.596;13.320;2023-07-20T13:16:07;30.30;53.70
16867;DHT22;8550;52.596;13.320;2023-07-20T13:21:09;30.50;52.50
16867;DHT22;8550;52.596;13.320;2023-07-20T13:26:14;30.20;52.20
16867;DHT22;8550;52.596;13.320;2023-07-20T13:31:16;31.30;51.00
16867;DHT22;8550;52.596;13.320;2023-07-20T13:36:18;30.70;50.60
16867;DHT22;8550;52.596;13.320;2023-07-20T13:41:22;30.10;50.00
16867;DHT22;8550;52.596;13.320;2023-07-20T13:46:24;29.90;49.60
16867;DHT22;8550;52.596;13.320;2023-07-20T13:51:26;32.00;47.60
16867;DHT22;8550;52.596;13.320;2023-07-20T13:56:29;30.70;46.50
16867;DHT22;8550;52.596;13.320;2023-07-20T14:01:32;29.60;48.90
16867;DHT22;8550;52.596;13.320;2023-07-20T14:06:35;28.10;49.90
16867;DHT22;8550;52.596;13.320;2023-07-20T14:11:39;28.00;51.50
16867;DHT22;8550;52.596;13.320;2023-07-20T14:16:41;28.20;53.60
16867;DHT22;8550;52.596;13.320;2023-07-20T14:21:43;27.40;52.60
16867;DHT22;8550;52.596;13.320;2023-07-20T14:26:46;25.30;55.60
16867;DHT22;8550;52.596;13.320;2023-07-20T14:31:49;26.10;55.70
16867;DHT22;8550;52.596;13.320;2023-07-20T14:36:53;27.80;53.20
16867;DHT22;8550;52.596;13.320;2023-07-20T14:41:56;27.60;51.90
16867;DHT22;8550;52.596;13.320;2023-07-20T14:46:59;28.80;50.40
16867;DHT22;8550;52.596;13.320;2023-07-20T14:52:02;28.80;48.50
16867;DHT22;8550;52.596;13.320;2023-07-20T14:57:06;28.30;50.20
16867;DHT22;8550;52.596;13.320;2023-07-20T15:02:14;27.20;51.00
16867;DHT22;8550;52.596;13.320;2023-07-20T15:07:16;26.80;52.20
16867;DHT22;8550;52.596;13.320;2023-07-20T15:12:20;26.20;54.90
16867;DHT22;8550;52.596;13.320;2023-07-20T15:17:34;25.90;53.20
16867;DHT22;8550;52.596;13.320;2023-07-20T15:22:39;24.70;55.00
16867;DHT22;8550;52.596;13.320;2023-07-20T15:27:43;23.90;57.10
16867;DHT22;8550;52.596;13.320;2023-07-20T15:32:45;23.20;59.10
16867;DHT22;8550;52.596;13.320;2023-07-20T15:37:47;22.90;59.90
16867;DHT22;8550;52.596;13.320;2023-07-20T15:42:50;22.90;59.80
16867;DHT22;8550;52.596;13.320;2023-07-20T15:47:52;22.80;60.40
16867;DHT22;8550;52.596;13.320;2023-07-20T15:52:54;22.70;63.10
16867;DHT22;8550;52.596;13.320;2023-07-20T15:57:57;22.70;64.50
16867;DHT22;8550;52.596;13.320;2023-07-20T16:02:59;22.90;64.70
16867;DHT22;8550;52.596;13.320;2023-07-20T16:08:01;22.70;66.80
16867;DHT22;8550;52.596;13.320;2023-07-20T16:13:06;22.60;65.60
16867;DHT22;8550;52.596;13.320;2023-07-20T16:18:08;22.50;66.50
16867;DHT22;8550;52.596;13.320;2023-07-20T16:23:10;22.50;65.50
16867;DHT22;8550;52.596;13.320;2023-07-20T16:28:13;22.40;65.50
16867;DHT22;8550;52.596;13.320;2023-07-20T16:33:16;21.90;67.50
16867;DHT22;8550;52.596;13.320;2023-07-20T16:38:19;21.80;70.20
16867;DHT22;8550;52.596;13.320;2023-07-20T16:43:22;22.00;70.90
16867;DHT22;8550;52.596;13.320;2023-07-20T16:48:24;22.70;68.20
16867;DHT22;8550;52.596;13.320;2023-07-20T16:53:26;22.60;69.20
16867;DHT22;8550;52.596;13.320;2023-07-20T16:58:29;22.10;70.00
16867;DHT22;8550;52.596;13.320;2023-07-20T17:03:32;22.10;71.30
16867;DHT22;8550;52.596;13.320;2023-07-20T17:08:34;22.10;69.60
16867;DHT22;8550;52.596;13.320;2023-07-20T17:13:38;21.90;68.90
16867;DHT22;8550;52.596;13.320;2023-07-20T17:18:40;22.50;68.60
16867;DHT22;8550;52.596;13.320;2023-07-20T17:23:42;23.10;65.60
16867;DHT22;8550;52.596;13.320;2023-07-20T17:28:45;23.30;64.60
16867;DHT22;8550;52.596;13.320;2023-07-20T17:33:47;23.70;64.20
16867;DHT22;8550;52.596;13.320;2023-07-20T17:38:49;24.10;62.00
16867;DHT22;8550;52.596;13.320;2023-07-20T17:43:52;23.20;62.60
16867;DHT22;8550;52.596;13.320;2023-07-20T17:48:54;22.30;65.70
16867;DHT22;8550;52.596;13.320;2023-07-20T17:53:57;21.40;67.90
16867;DHT22;8550;52.596;13.320;2023-07-20T17:59:01;20.80;70.90
16867;DHT22;8550;52.596;13.320;2023-07-20T18:04:03;20.40;72.80
16867;DHT22;8550;52.596;13.320;2023-07-20T18:09:05;20.20;74.70
16867;DHT22;8550;52.596;13.320;2023-07-20T18:14:09;20.00;76.90
16867;DHT22;8550;52.596;13.320;2023-07-20T18:19:11;19.90;77.20
16867;DHT22;8550;52.596;13.320;2023-07-20T18:24:13;19.70;79.30
16867;DHT22;8550;52.596;13.320;2023-07-20T18:29:16;19.60;80.40
16867;DHT22;8550;52.596;13.320;2023-07-20T18:34:18;19.40;82.00
16867;DHT22;8550;52.596;13.320;2023-07-20T18:39:20;19.20;83.60
16867;DHT22;8550;52.596;13.320;2023-07-20T18:44:24;19.00;85.70
16867;DHT22;8550;52.596;13.320;2023-07-20T18:49:26;18.80;87.80
16867;DHT22;8550;52.596;13.320;2023-07-20T18:54:29;18.80;90.10
16867;DHT22;8550;52.596;13.320;2023-07-20T18:59:34;18.50;91.60
16867;DHT22;8550;52.596;13.320;2023-07-20T19:04:36;18.40;92.10
16867;DHT22;8550;52.596;13.320;2023-07-20T19:09:38;18.40;93.20
16867;DHT22;8550;52.596;13.320;2023-07-20T19:14:41;18.30;93.60
16867;DHT22;8550;52.596;13.320;2023-07-20T19:19:43;18.30;94.80
16867;DHT22;8550;52.596;13.320;2023-07-20T19:24:45;18.00;98.00
16867;DHT22;8550;52.596;13.320;2023-07-20T19:29:49;17.80;99.90
16867;DHT22;8550;52.596;13.320;2023-07-20T19:34:51;17.60;99.90
16867;DHT22;8550;52.596;13.320;2023-07-20T19:39:53;17.40;99.90
16867;DHT22;8550;52.596;13.320;2023-07-20T19:44:56;17.00;99.90
16867;DHT22;8550;52.596;13.320;2023-07-20T19:49:58;16.70;99.90
16867;DHT22;8550;52.596;13.320;2023-07-20T19:55:00;16.40;99.90
16867;DHT22;8550;52.596;13.320;2023-07-20T20:00:06;16.40;99.90
16867;DHT22;8550;52.596;13.320;2023-07-20T20:05:12;16.10;99.90
16867;DHT22;8550;52.596;13.320;2023-07-20T20:10:15;16.00;99.90
16867;DHT22;8550;52.596;13.320;2023-07-20T20:15:19;15.80;99.90
16867;DHT22;8550;52.596;13.320;2023-07-20T20:20:21;15.80;99.90
16867;DHT22;8550;52.596;13.320;2023-07-20T20:25:23;15.70;99.90
16867;DHT22;8550;52.596;13.320;2023-07-20T20:30:26;15.60;99.90
16867;DHT22;8550;52.596;13.320;2023-07-20T20:35:29;15.50;99.90
16867;DHT22;8550;52.596;13.320;2023-07-20T20:40:31;15.50;99.90
16867;DHT22;8550;52.596;13.320;2023-07-20T20:45:35;15.40;99.90
16867;DHT22;8550;52.596;13.320;2023-07-20T20:50:38;15.30;99.90
16867;DHT22;8550;52.596;13.320;2023-07-20T20:55:44;15.30;99.90
16867;DHT22;8550;52.596;13.320;2023-07-20T21:00:47;15.20;99.90
16867;DHT22;8550;52.596;13.320;2023-07-20T21:05:49;15.20;99.90
16867;DHT22;8550;52.596;13.320;2023-07-20T21:10:51;15.30;99.90
16867;DHT22;8550;52.596;13.320;2023-07-20T21:15:55;15.30;99.90
16867;DHT22;8550;52.596;13.320;2023-07-20T21:20:57;15.20;99.90
16867;DHT22;8550;52.596;13.320;2023-07-20T21:25:59;15.30;99.90
16867;DHT22;8550;52.596;13.320;2023-07-20T21:31:03;15.20;99.90
16867;DHT22;8550;52.596;13.320;2023-07-20T21:36:05;15.10;99.90
16867;DHT22;8550;52.596;13.320;2023-07-20T21:41:07;14.90;99.90
16867;DHT22;8550;52.596;13.320;2023-07-20T21:46:11;15.00;99.90
16867;DHT22;8550;52.596;13.320;2023-07-20T21:51:13;15.00;99.90
16867;DHT22;8550;52.596;13.320;2023-07-20T21:56:16;15.00;99.90
16867;DHT22;8550;52.596;13.320;2023-07-20T22:01:20;14.90;99.90
16867;DHT22;8550;52.596;13.320;2023-07-20T22:06:22;14.80;99.90
16867;DHT22;8550;52.596;13.320;2023-07-20T22:11:24;14.90;99.90
16867;DHT22;8550;52.596;13.320;2023-07-20T22:16:27;14.80;99.90
16867;DHT22;8550;52.596;13.320;2023-07-20T22:21:31;14.50;99.90
16867;DHT22;8550;52.596;13.320;2023-07-20T22:26:34;14.60;99.90
16867;DHT22;8550;52.596;13.320;2023-07-20T22:31:38;14.60;99.90
16867;DHT22;8550;52.596;13.320;2023-07-20T22:36:40;14.40;99.90
16867;DHT22;8550;52.596;13.320;2023-07-20T22:41:42;14.30;99.90
16867;DHT22;8550;52.596;13.320;2023-07-20T22:46:45;14.30;99.90
16867;DHT22;8550;52.596;13.320;2023-07-20T22:51:47;14.20;99.90
16867;DHT22;8550;52.596;13.320;2023-07-20T22:56:49;14.30;99.90
16867;DHT22;8550;52.596;13.320;2023-07-20T23:01:53;14.10;99.90
16867;DHT22;8550;52.596;13.320;2023-07-20T23:06:55;13.90;99.90
16867;DHT22;8550;52.596;13.320;2023-07-20T23:11:57;14.00;99.90
16867;DHT22;8550;52.596;13.320;2023-07-20T23:17:03;13.90;99.90
16867;DHT22;8550;52.596;13.320;2023-07-20T23:22:07;13.90;99.90
16867;DHT22;8550;52.596;13.320;2023-07-20T23:27:09;13.90;99.90
16867;DHT22;8550;52.596;13.320;2023-07-20T23:32:12;13.80;99.90
16867;DHT22;8550;52.596;13.320;2023-07-20T23:37:15;13.70;99.90
16867;DHT22;8550;52.596;13.320;2023-07-20T23:42:17;13.60;99.90
16867;DHT22;8550;52.596;13.320;2023-07-20T23:47:21;13.80;99.90
16867;DHT22;8550;52.596;13.320;2023-07-20T23:52:24;13.60;99.90
16867;DHT22;8550;52.596;13.320;2023-07-20T23:57:28;13.40;99.90
